sensor_id;sensor_type;location;lat;lon;timestamp;pressure;altitude;pressure_sealevel;temperature;humidity
55263;BME280;41125;48.752;9.168;2022-07-05T00:00:29;97180.22;;;17.82;58.32
55263;BME280;41125;48.752;9.168;2022-07-05T00:01:01;97182.00;;;17.78;58.35
55263;BME280;41125;48.752;9.168;2022-07-05T00:01:32;97181.53;;;17.76;58.15
55263;BME280;41125;48.752;9.168;2022-07-05T00:02:03;97179.94;;;17.75;57.93
55263;BME280;41125;48.752;9.168;2022-07-05T00:02:34;97178.78;;;17.76;57.98
55263;BME280;41125;48.752;9.168;2022-07-05T00:03:06;97180.72;;;17.75;57.47
55263;BME280;41125;48.752;9.168;2022-07-05T00:03:37;97172.16;;;17.77;57.51
55263;BME280;41125;48.752;9.168;2022-07-05T00:04:08;97176.84;;;17.77;57.74
55263;BME280;41125;48.752;9.168;2022-07-05T00:04:39;97173.78;;;17.78;57.35
55263;BME280;41125;48.752;9.168;2022-07-05T00:05:10;97179.25;;;17.78;56.91
55263;BME280;41125;48.752;9.168;2022-07-05T00:05:41;97179.25;;;17.78;56.92
55263;BME280;41125;48.752;9.168;2022-07-05T00:06:12;97172.16;;;17.77;56.83
55263;BME280;41125;48.752;9.168;2022-07-05T00:06:44;97176.03;;;17.76;57.25
55263;BME280;41125;48.752;9.168;2022-07-05T00:07:33;97183.56;;;17.67;58.30
55263;BME280;41125;48.752;9.168;2022-07-05T00:08:04;97186.44;;;17.62;58.77
55263;BME280;41125;48.752;9.168;2022-07-05T00:08:35;97180.00;;;17.58;58.61
55263;BME280;41125;48.752;9.168;2022-07-05T00:09:06;97174.53;;;17.58;58.04
55263;BME280;41125;48.752;9.168;2022-07-05T00:09:37;97175.31;;;17.58;57.54
55263;BME280;41125;48.752;9.168;2022-07-05T00:10:08;97169.50;;;17.60;57.47
55263;BME280;41125;48.752;9.168;2022-07-05T00:10:39;97172.25;;;17.60;57.39
55263;BME280;41125;48.752;9.168;2022-07-05T00:11:10;97173.87;;;17.61;58.04
55263;BME280;41125;48.752;9.168;2022-07-05T00:11:41;97171.13;;;17.61;57.96
55263;BME280;41125;48.752;9.168;2022-07-05T00:12:12;97171.13;;;17.61;57.82
55263;BME280;41125;48.752;9.168;2022-07-05T00:12:46;97175.47;;;17.62;57.69
55263;BME280;41125;48.752;9.168;2022-07-05T00:13:18;97170.78;;;17.62;57.51
55263;BME280;41125;48.752;9.168;2022-07-05T00:13:49;97171.91;;;17.61;58.09
55263;BME280;41125;48.752;9.168;2022-07-05T00:14:21;97168.38;;;17.61;57.61
55263;BME280;41125;48.752;9.168;2022-07-05T00:14:52;97169.50;;;17.60;57.40
55263;BME280;41125;48.752;9.168;2022-07-05T00:15:23;97173.06;;;17.60;57.49
55263;BME280;41125;48.752;9.168;2022-07-05T00:15:54;97169.97;;;17.62;57.52
55263;BME280;41125;48.752;9.168;2022-07-05T00:16:24;97167.25;;;17.62;57.13
55263;BME280;41125;48.752;9.168;2022-07-05T00:16:55;97170.78;;;17.62;57.32
55263;BME280;41125;48.752;9.168;2022-07-05T00:17:26;97169.97;;;17.62;57.33
55263;BME280;41125;48.752;9.168;2022-07-05T00:17:57;97169.97;;;17.62;57.01
55263;BME280;41125;48.752;9.168;2022-07-05T00:18:28;97168.84;;;17.63;57.39
55263;BME280;41125;48.752;9.168;2022-07-05T00:18:59;97166.09;;;17.63;57.18
55263;BME280;41125;48.752;9.168;2022-07-05T00:19:30;97170.47;;;17.64;57.16
55263;BME280;41125;48.752;9.168;2022-07-05T00:20:02;97167.72;;;17.64;57.27
55263;BME280;41125;48.752;9.168;2022-07-05T00:20:33;97171.59;;;17.63;57.20
55263;BME280;41125;48.752;9.168;2022-07-05T00:21:04;97168.84;;;17.63;57.09
55263;BME280;41125;48.752;9.168;2022-07-05T00:21:37;97168.84;;;17.63;57.36
55263;BME280;41125;48.752;9.168;2022-07-05T00:22:07;97166.09;;;17.63;57.19
55263;BME280;41125;48.752;9.168;2022-07-05T00:22:38;97167.25;;;17.62;57.01
55263;BME280;41125;48.752;9.168;2022-07-05T00:23:09;97163.69;;;17.61;56.70
55263;BME280;41125;48.752;9.168;2022-07-05T00:23:45;97161.28;;;17.60;57.01
55263;BME280;41125;48.752;9.168;2022-07-05T00:24:16;97162.09;;;17.60;56.64
55263;BME280;41125;48.752;9.168;2022-07-05T00:24:47;97167.56;;;17.60;56.99
55263;BME280;41125;48.752;9.168;2022-07-05T00:25:18;97164.50;;;17.62;56.56
55263;BME280;41125;48.752;9.168;2022-07-05T00:25:50;97169.97;;;17.62;56.84
55263;BME280;41125;48.752;9.168;2022-07-05T00:26:25;97159.81;;;17.62;56.44
55263;BME280;41125;48.752;9.168;2022-07-05T00:26:56;97164.50;;;17.62;56.65
55263;BME280;41125;48.752;9.168;2022-07-05T00:27:28;97160.63;;;17.63;56.75
55263;BME280;41125;48.752;9.168;2022-07-05T00:28:00;97159.81;;;17.62;56.77
55263;BME280;41125;48.752;9.168;2022-07-05T00:28:31;97169.19;;;17.61;56.97
55263;BME280;41125;48.752;9.168;2022-07-05T00:29:01;97162.56;;;17.62;57.15
55263;BME280;41125;48.752;9.168;2022-07-05T00:29:32;97170.78;;;17.62;56.50
55263;BME280;41125;48.752;9.168;2022-07-05T00:30:04;97167.25;;;17.62;56.43
55263;BME280;41125;48.752;9.168;2022-07-05T00:30:35;97166.09;;;17.63;56.28
55263;BME280;41125;48.752;9.168;2022-07-05T00:31:06;97166.09;;;17.63;56.58
55263;BME280;41125;48.752;9.168;2022-07-05T00:31:37;97155.12;;;17.63;56.36
55263;BME280;41125;48.752;9.168;2022-07-05T00:32:14;97168.84;;;17.63;56.34
55263;BME280;41125;48.752;9.168;2022-07-05T00:32:45;97159.81;;;17.62;56.59
55263;BME280;41125;48.752;9.168;2022-07-05T00:33:16;97166.09;;;17.63;56.69
55263;BME280;41125;48.752;9.168;2022-07-05T00:33:47;97159.81;;;17.62;56.73
55263;BME280;41125;48.752;9.168;2022-07-05T00:34:18;97166.09;;;17.63;56.54
55263;BME280;41125;48.752;9.168;2022-07-05T00:34:49;97161.41;;;17.63;56.17
55263;BME280;41125;48.752;9.168;2022-07-05T00:35:20;97160.63;;;17.63;56.36
55263;BME280;41125;48.752;9.168;2022-07-05T00:35:51;97153.53;;;17.62;56.53
55263;BME280;41125;48.752;9.168;2022-07-05T00:36:22;97160.63;;;17.63;56.55
55263;BME280;41125;48.752;9.168;2022-07-05T00:36:54;97159.81;;;17.62;56.08
55263;BME280;41125;48.752;9.168;2022-07-05T00:37:25;97149.66;;;17.63;55.93
55263;BME280;41125;48.752;9.168;2022-07-05T00:37:56;97151.25;;;17.64;55.43
55263;BME280;41125;48.752;9.168;2022-07-05T00:38:28;97154.50;;;17.66;55.22
55263;BME280;41125;48.752;9.168;2022-07-05T00:38:59;97157.69;;;17.68;55.50
55263;BME280;41125;48.752;9.168;2022-07-05T00:39:30;97149.94;;;17.70;55.35
55263;BME280;41125;48.752;9.168;2022-07-05T00:40:02;97155.41;;;17.70;55.16
55263;BME280;41125;48.752;9.168;2022-07-05T00:40:34;97149.94;;;17.70;55.41
55263;BME280;41125;48.752;9.168;2022-07-05T00:41:05;97151.06;;;17.69;55.18
55263;BME280;41125;48.752;9.168;2022-07-05T00:41:36;97158.50;;;17.68;55.68
55263;BME280;41125;48.752;9.168;2022-07-05T00:42:07;97153.38;;;17.67;55.49
55263;BME280;41125;48.752;9.168;2022-07-05T00:42:38;97154.94;;;17.68;55.87
55263;BME280;41125;48.752;9.168;2022-07-05T00:43:08;97149.81;;;17.66;55.72
55263;BME280;41125;48.752;9.168;2022-07-05T00:44:33;97160.00;;;17.66;55.73
55263;BME280;41125;48.752;9.168;2022-07-05T00:45:08;97151.75;;;17.66;56.55
55263;BME280;41125;48.752;9.168;2022-07-05T00:45:39;97155.94;;;17.63;56.35
55263;BME280;41125;48.752;9.168;2022-07-05T00:46:10;97151.91;;;17.61;57.12
55263;BME280;41125;48.752;9.168;2022-07-05T00:46:41;97155.78;;;17.60;56.61
55263;BME280;41125;48.752;9.168;2022-07-05T00:47:13;97154.19;;;17.59;56.88
55263;BME280;41125;48.752;9.168;2022-07-05T00:47:44;97152.56;;;17.58;56.99
55263;BME280;41125;48.752;9.168;2022-07-05T00:48:15;97150.97;;;17.57;56.86
55263;BME280;41125;48.752;9.168;2022-07-05T00:48:45;97151.78;;;17.57;56.57
55263;BME280;41125;48.752;9.168;2022-07-05T00:49:16;97148.69;;;17.59;56.50
55263;BME280;41125;48.752;9.168;2022-07-05T00:49:47;97149.81;;;17.58;55.87
55263;BME280;41125;48.752;9.168;2022-07-05T00:50:18;97155.66;;;17.56;56.60
55263;BME280;41125;48.752;9.168;2022-07-05T00:50:49;97151.63;;;17.54;56.76
55263;BME280;41125;48.752;9.168;2022-07-05T00:51:21;97159.84;;;17.54;56.60
55263;BME280;41125;48.752;9.168;2022-07-05T00:51:52;97153.56;;;17.53;56.84
55263;BME280;41125;48.752;9.168;2022-07-05T00:52:23;97155.50;;;17.53;56.55
55263;BME280;41125;48.752;9.168;2022-07-05T00:52:54;97156.31;;;17.53;56.12
55263;BME280;41125;48.752;9.168;2022-07-05T00:53:25;97157.09;;;17.54;56.00
55263;BME280;41125;48.752;9.168;2022-07-05T00:53:58;97150.00;;;17.53;56.35
55263;BME280;41125;48.752;9.168;2022-07-05T00:54:34;97158.25;;;17.53;56.48
55263;BME280;41125;48.752;9.168;2022-07-05T00:55:06;97153.88;;;17.52;56.51
55263;BME280;41125;48.752;9.168;2022-07-05T00:55:37;97161.31;;;17.51;56.63
55263;BME280;41125;48.752;9.168;2022-07-05T00:56:11;97153.09;;;17.51;56.76
55263;BME280;41125;48.752;9.168;2022-07-05T00:56:43;97162.12;;;17.52;56.53
55263;BME280;41125;48.752;9.168;2022-07-05T00:57:14;97157.78;;;17.51;56.54
55263;BME280;41125;48.752;9.168;2022-07-05T00:57:45;97156.16;;;17.50;56.94
55263;BME280;41125;48.752;9.168;2022-07-05T00:58:16;97154.56;;;17.49;56.61
55263;BME280;41125;48.752;9.168;2022-07-05T00:58:48;97157.28;;;17.49;56.95
55263;BME280;41125;48.752;9.168;2022-07-05T00:59:20;97162.31;;;17.47;56.54
55263;BME280;41125;48.752;9.168;2022-07-05T00:59:51;97156.34;;;17.45;57.14
55263;BME280;41125;48.752;9.168;2022-07-05T01:00:22;97155.88;;;17.42;56.88
55263;BME280;41125;48.752;9.168;2022-07-05T01:00:53;97161.69;;;17.41;57.31
55263;BME280;41125;48.752;9.168;2022-07-05T01:01:25;97159.75;;;17.41;57.31
55263;BME280;41125;48.752;9.168;2022-07-05T01:01:56;97159.28;;;17.39;57.42
55263;BME280;41125;48.752;9.168;2022-07-05T01:02:27;97164.75;;;17.39;57.17
55263;BME280;41125;48.752;9.168;2022-07-05T01:02:58;97151.84;;;17.40;57.17
55263;BME280;41125;48.752;9.168;2022-07-05T01:03:29;97159.28;;;17.39;56.66
55263;BME280;41125;48.752;9.168;2022-07-05T01:04:00;97154.59;;;17.40;56.83
55263;BME280;41125;48.752;9.168;2022-07-05T01:04:31;97159.59;;;17.38;57.51
55263;BME280;41125;48.752;9.168;2022-07-05T01:05:02;97155.56;;;17.35;57.42
55263;BME280;41125;48.752;9.168;2022-07-05T01:05:34;97156.72;;;17.34;57.12
55263;BME280;41125;48.752;9.168;2022-07-05T01:06:05;97157.84;;;17.33;57.21
55263;BME280;41125;48.752;9.168;2022-07-05T01:06:39;97150.78;;;17.32;56.99
55263;BME280;41125;48.752;9.168;2022-07-05T01:07:10;97157.84;;;17.33;57.07
55263;BME280;41125;48.752;9.168;2022-07-05T01:07:41;97165.25;;;17.33;56.57
55263;BME280;41125;48.752;9.168;2022-07-05T01:08:12;97164.50;;;17.32;57.08
55263;BME280;41125;48.752;9.168;2022-07-05T01:08:44;97166.28;;;17.28;58.40
55263;BME280;41125;48.752;9.168;2022-07-05T01:09:17;97166.13;;;17.25;58.14
55263;BME280;41125;48.752;9.168;2022-07-05T01:09:49;97162.91;;;17.23;57.71
55263;BME280;41125;48.752;9.168;2022-07-05T01:10:20;97162.91;;;17.23;57.55
55263;BME280;41125;48.752;9.168;2022-07-05T01:10:50;97163.72;;;17.23;57.46
55263;BME280;41125;48.752;9.168;2022-07-05T01:11:22;97163.72;;;17.23;57.91
55263;BME280;41125;48.752;9.168;2022-07-05T01:11:54;97174.22;;;17.21;58.58
55263;BME280;41125;48.752;9.168;2022-07-05T01:12:25;97168.25;;;17.19;58.22
55263;BME280;41125;48.752;9.168;2022-07-05T01:12:56;97161.97;;;17.19;57.94
55263;BME280;41125;48.752;9.168;2022-07-05T01:13:27;97165.50;;;17.19;57.62
55263;BME280;41125;48.752;9.168;2022-07-05T01:13:58;97168.25;;;17.19;57.79
55263;BME280;41125;48.752;9.168;2022-07-05T01:14:30;97156.94;;;17.21;57.75
55263;BME280;41125;48.752;9.168;2022-07-05T01:15:02;97157.28;;;17.19;57.61
55263;BME280;41125;48.752;9.168;2022-07-05T01:15:33;97165.19;;;17.21;57.55
55263;BME280;41125;48.752;9.168;2022-07-05T01:16:04;97157.28;;;17.19;57.31
55263;BME280;41125;48.752;9.168;2022-07-05T01:16:35;97163.25;;;17.21;57.54
55263;BME280;41125;48.752;9.168;2022-07-05T01:17:09;97162.75;;;17.19;57.33
55263;BME280;41125;48.752;9.168;2022-07-05T01:17:40;97156.16;;;17.20;57.53
55263;BME280;41125;48.752;9.168;2022-07-05T01:18:10;97162.75;;;17.19;57.52
55263;BME280;41125;48.752;9.168;2022-07-05T01:18:41;97162.75;;;17.19;57.44
55263;BME280;41125;48.752;9.168;2022-07-05T01:19:13;97158.09;;;17.20;57.55
55263;BME280;41125;48.752;9.168;2022-07-05T01:19:45;97167.91;;;17.21;57.49
55263;BME280;41125;48.752;9.168;2022-07-05T01:20:20;97167.44;;;17.19;57.12
55263;BME280;41125;48.752;9.168;2022-07-05T01:20:53;97165.03;;;17.17;57.46
55263;BME280;41125;48.752;9.168;2022-07-05T01:21:25;97166.16;;;17.16;57.90
55263;BME280;41125;48.752;9.168;2022-07-05T01:21:57;97169.56;;;17.13;58.33
55263;BME280;41125;48.752;9.168;2022-07-05T01:23:36;97172.47;;;17.08;59.05
55263;BME280;41125;48.752;9.168;2022-07-05T01:24:08;97167.31;;;17.06;58.82
55263;BME280;41125;48.752;9.168;2022-07-05T01:24:39;97168.91;;;17.07;58.57
55263;BME280;41125;48.752;9.168;2022-07-05T01:25:10;97163.75;;;17.06;58.21
55263;BME280;41125;48.752;9.168;2022-07-05T01:25:41;97162.97;;;17.05;58.76
55263;BME280;41125;48.752;9.168;2022-07-05T01:26:12;97164.41;;;17.03;58.33
55263;BME280;41125;48.752;9.168;2022-07-05T01:26:45;97169.91;;;17.03;58.39
55263;BME280;41125;48.752;9.168;2022-07-05T01:27:17;97166.34;;;17.02;58.52
55263;BME280;41125;48.752;9.168;2022-07-05T01:27:48;97168.28;;;17.02;58.55
55263;BME280;41125;48.752;9.168;2022-07-05T01:28:20;97171.03;;;17.02;58.17
55263;BME280;41125;48.752;9.168;2022-07-05T01:28:51;97161.19;;;17.01;58.46
55263;BME280;41125;48.752;9.168;2022-07-05T01:29:22;97163.47;;;16.99;58.19
55263;BME280;41125;48.752;9.168;2022-07-05T01:29:53;97159.59;;;17.00;58.35
55263;BME280;41125;48.752;9.168;2022-07-05T01:30:24;97163.47;;;16.99;58.26
55263;BME280;41125;48.752;9.168;2022-07-05T01:30:55;97160.72;;;16.99;58.03
55263;BME280;41125;48.752;9.168;2022-07-05T01:31:26;97160.28;;;16.97;57.99
55263;BME280;41125;48.752;9.168;2022-07-05T01:31:56;97172.84;;;16.98;58.43
55263;BME280;41125;48.752;9.168;2022-07-05T01:32:27;97170.44;;;16.96;58.48
55263;BME280;41125;48.752;9.168;2022-07-05T01:32:58;97159.78;;;16.95;58.82
55263;BME280;41125;48.752;9.168;2022-07-05T01:33:29;97167.53;;;16.93;58.24
55263;BME280;41125;48.752;9.168;2022-07-05T01:34:00;97160.94;;;16.94;58.23
55263;BME280;41125;48.752;9.168;2022-07-05T01:34:32;97163.66;;;16.94;58.58
55263;BME280;41125;48.752;9.168;2022-07-05T01:35:04;97169.62;;;16.96;58.07
55263;BME280;41125;48.752;9.168;2022-07-05T01:35:35;97163.34;;;16.95;58.05
55263;BME280;41125;48.752;9.168;2022-07-05T01:36:07;97153.19;;;16.96;57.82
55263;BME280;41125;48.752;9.168;2022-07-05T01:36:38;97151.56;;;16.95;57.82
55263;BME280;41125;48.752;9.168;2022-07-05T01:37:09;97173.50;;;16.95;58.42
55263;BME280;41125;48.752;9.168;2022-07-05T01:37:42;97174.16;;;16.92;58.43
55263;BME280;41125;48.752;9.168;2022-07-05T01:38:13;97167.72;;;16.88;59.59
55263;BME280;41125;48.752;9.168;2022-07-05T01:38:45;97168.34;;;16.85;58.96
55263;BME280;41125;48.752;9.168;2022-07-05T01:39:16;97168.34;;;16.85;59.02
55263;BME280;41125;48.752;9.168;2022-07-05T01:39:47;97163.19;;;16.83;58.87
55263;BME280;41125;48.752;9.168;2022-07-05T01:40:19;97168.34;;;16.85;59.09
55263;BME280;41125;48.752;9.168;2022-07-05T01:40:50;97168.34;;;16.85;58.93
55263;BME280;41125;48.752;9.168;2022-07-05T01:41:22;97169.97;;;16.86;58.70
55263;BME280;41125;48.752;9.168;2022-07-05T01:41:53;97162.88;;;16.85;58.72
55263;BME280;41125;48.752;9.168;2022-07-05T01:42:24;97169.16;;;16.85;58.59
55263;BME280;41125;48.752;9.168;2022-07-05T01:42:54;97169.97;;;16.86;58.23
55263;BME280;41125;48.752;9.168;2022-07-05T01:43:29;97159.00;;;16.86;57.90
55263;BME280;41125;48.752;9.168;2022-07-05T01:44:00;97164.50;;;16.86;57.39
55263;BME280;41125;48.752;9.168;2022-07-05T01:44:32;97165.28;;;16.86;57.99
55263;BME280;41125;48.752;9.168;2022-07-05T01:45:03;97165.13;;;16.83;57.75
55263;BME280;41125;48.752;9.168;2022-07-05T01:45:34;97169.00;;;16.82;58.02
55263;BME280;41125;48.752;9.168;2022-07-05T01:46:12;97165.13;;;16.83;58.24
55263;BME280;41125;48.752;9.168;2022-07-05T01:46:48;97165.13;;;16.83;57.88
55263;BME280;41125;48.752;9.168;2022-07-05T01:47:21;97169.00;;;16.82;57.68
55263;BME280;41125;48.752;9.168;2022-07-05T01:47:53;97160.31;;;16.80;58.01
55263;BME280;41125;48.752;9.168;2022-07-05T01:48:24;97165.78;;;16.80;57.80
55263;BME280;41125;48.752;9.168;2022-07-05T01:48:56;97163.38;;;16.78;57.69
55263;BME280;41125;48.752;9.168;2022-07-05T01:49:28;97166.44;;;16.77;58.03
55263;BME280;41125;48.752;9.168;2022-07-05T01:50:01;97165.97;;;16.74;58.69
55263;BME280;41125;48.752;9.168;2022-07-05T01:50:35;97166.28;;;16.73;58.27
55263;BME280;41125;48.752;9.168;2022-07-05T01:51:13;97166.28;;;16.73;58.56
55263;BME280;41125;48.752;9.168;2022-07-05T01:51:54;97165.47;;;16.72;58.58
55263;BME280;41125;48.752;9.168;2022-07-05T01:52:25;97160.31;;;16.71;58.39
55263;BME280;41125;48.752;9.168;2022-07-05T01:52:58;97165.47;;;16.72;58.53
55263;BME280;41125;48.752;9.168;2022-07-05T01:53:32;97162.75;;;16.72;58.30
55263;BME280;41125;48.752;9.168;2022-07-05T01:54:04;97165.00;;;16.70;58.32
55263;BME280;41125;48.752;9.168;2022-07-05T01:54:35;97159.50;;;16.70;58.49
55263;BME280;41125;48.752;9.168;2022-07-05T01:55:06;97162.59;;;16.69;58.64
55263;BME280;41125;48.752;9.168;2022-07-05T01:55:37;97166.13;;;16.69;58.39
55263;BME280;41125;48.752;9.168;2022-07-05T01:56:10;97167.25;;;16.68;58.26
55263;BME280;41125;48.752;9.168;2022-07-05T01:56:41;97164.50;;;16.68;58.44
55263;BME280;41125;48.752;9.168;2022-07-05T01:57:11;97163.72;;;16.68;58.52
55263;BME280;41125;48.752;9.168;2022-07-05T01:57:43;97169.19;;;16.68;58.48
55263;BME280;41125;48.752;9.168;2022-07-05T01:58:14;97164.03;;;16.66;58.77
55263;BME280;41125;48.752;9.168;2022-07-05T01:58:45;97160.50;;;16.66;58.62
55263;BME280;41125;48.752;9.168;2022-07-05T01:59:16;97159.69;;;16.65;58.64
55263;BME280;41125;48.752;9.168;2022-07-05T01:59:49;97169.03;;;16.64;59.34
55263;BME280;41125;48.752;9.168;2022-07-05T02:00:20;97169.53;;;16.58;60.25
55263;BME280;41125;48.752;9.168;2022-07-05T02:00:51;97167.59;;;16.50;59.49
55263;BME280;41125;48.752;9.168;2022-07-05T02:01:35;97173.72;;;16.47;59.84
55263;BME280;41125;48.752;9.168;2022-07-05T02:02:06;97168.56;;;16.45;59.49
55263;BME280;41125;48.752;9.168;2022-07-05T02:02:40;97171.78;;;16.47;59.78
55263;BME280;41125;48.752;9.168;2022-07-05T02:03:11;97164.38;;;16.48;59.61
55263;BME280;41125;48.752;9.168;2022-07-05T02:03:42;97169.03;;;16.47;59.39
55263;BME280;41125;48.752;9.168;2022-07-05T02:04:14;97172.09;;;16.46;60.58
55263;BME280;41125;48.752;9.168;2022-07-05T02:04:47;97167.09;;;16.39;61.52
55263;BME280;41125;48.752;9.168;2022-07-05T02:05:18;97166.94;;;16.35;60.93
55263;BME280;41125;48.752;9.168;2022-07-05T02:05:48;97168.56;;;16.36;60.45
55263;BME280;41125;48.752;9.168;2022-07-05T02:06:20;97165.00;;;16.36;60.55
55263;BME280;41125;48.752;9.168;2022-07-05T02:06:50;97163.88;;;16.37;60.18
55263;BME280;41125;48.752;9.168;2022-07-05T02:07:21;97166.63;;;16.37;60.49
55263;BME280;41125;48.752;9.168;2022-07-05T02:07:55;97169.84;;;16.39;60.38
55263;BME280;41125;48.752;9.168;2022-07-05T02:08:29;97168.22;;;16.38;60.19
55263;BME280;41125;48.752;9.168;2022-07-05T02:09:01;97170.66;;;16.39;59.81
55263;BME280;41125;48.752;9.168;2022-07-05T02:09:32;97162.44;;;16.39;60.11
55263;BME280;41125;48.752;9.168;2022-07-05T02:10:03;97170.31;;;16.41;59.86
55263;BME280;41125;48.752;9.168;2022-07-05T02:10:35;97164.84;;;16.41;60.04
55263;BME280;41125;48.752;9.168;2022-07-05T02:11:06;97168.72;;;16.40;60.38
55263;BME280;41125;48.752;9.168;2022-07-05T02:11:37;97179.19;;;16.38;61.91
55263;BME280;41125;48.752;9.168;2022-07-05T02:12:08;97170.81;;;16.34;60.84
55263;BME280;41125;48.752;9.168;2022-07-05T02:12:40;97170.00;;;16.34;60.51
55263;BME280;41125;48.752;9.168;2022-07-05T02:13:11;97172.25;;;16.32;60.82
55263;BME280;41125;48.752;9.168;2022-07-05T02:13:42;97170.16;;;16.29;62.66
55263;BME280;41125;48.752;9.168;2022-07-05T02:14:13;97167.63;;;16.24;62.29
55263;BME280;41125;48.752;9.168;2022-07-05T02:14:44;97163.25;;;16.23;61.93
55263;BME280;41125;48.752;9.168;2022-07-05T02:15:14;97166.31;;;16.21;61.77
55263;BME280;41125;48.752;9.168;2022-07-05T02:15:45;97169.88;;;16.22;61.33
55263;BME280;41125;48.752;9.168;2022-07-05T02:16:16;97166.66;;;16.20;62.70
55263;BME280;41125;48.752;9.168;2022-07-05T02:16:47;97156.81;;;16.19;62.03
55263;BME280;41125;48.752;9.168;2022-07-05T02:17:18;97170.03;;;16.17;62.78
55263;BME280;41125;48.752;9.168;2022-07-05T02:17:48;97164.38;;;16.13;63.21
55263;BME280;41125;48.752;9.168;2022-07-05T02:18:19;97167.91;;;16.05;64.14
55263;BME280;41125;48.752;9.168;2022-07-05T02:18:50;97167.75;;;16.01;64.09
55263;BME280;41125;48.752;9.168;2022-07-05T02:19:21;97166.13;;;16.00;63.07
55263;BME280;41125;48.752;9.168;2022-07-05T02:19:52;97168.56;;;16.02;62.78
55263;BME280;41125;48.752;9.168;2022-07-05T02:20:23;97171.28;;;16.02;62.62
55263;BME280;41125;48.752;9.168;2022-07-05T02:20:54;97167.75;;;16.01;62.78
55263;BME280;41125;48.752;9.168;2022-07-05T02:21:25;97171.63;;;16.00;63.09
55263;BME280;41125;48.752;9.168;2022-07-05T02:21:56;97167.59;;;15.98;64.19
55263;BME280;41125;48.752;9.168;2022-07-05T02:22:27;97169.03;;;15.95;64.57
55263;BME280;41125;48.752;9.168;2022-07-05T02:22:58;97164.22;;;15.92;64.14
55263;BME280;41125;48.752;9.168;2022-07-05T02:23:29;97171.31;;;15.93;63.83
55263;BME280;41125;48.752;9.168;2022-07-05T02:24:00;97161.94;;;15.94;63.39
55263;BME280;41125;48.752;9.168;2022-07-05T02:24:31;97169.03;;;15.95;63.17
55263;BME280;41125;48.752;9.168;2022-07-05T02:25:03;97165.50;;;15.95;63.08
55263;BME280;41125;48.752;9.168;2022-07-05T02:25:34;97166.28;;;15.95;62.97
55263;BME280;41125;48.752;9.168;2022-07-05T02:26:05;97165.16;;;15.96;62.75
55263;BME280;41125;48.752;9.168;2022-07-05T02:26:36;97166.28;;;15.95;63.28
55263;BME280;41125;48.752;9.168;2022-07-05T02:27:07;97163.56;;;15.95;63.26
55263;BME280;41125;48.752;9.168;2022-07-05T02:27:38;97164.22;;;15.92;64.30
55263;BME280;41125;48.752;9.168;2022-07-05T02:28:12;97164.88;;;15.89;64.09
55263;BME280;41125;48.752;9.168;2022-07-05T02:28:44;97164.38;;;15.87;63.61
55263;BME280;41125;48.752;9.168;2022-07-05T02:29:16;97164.69;;;15.86;64.08
55263;BME280;41125;48.752;9.168;2022-07-05T02:29:46;97162.75;;;15.86;63.50
55263;BME280;41125;48.752;9.168;2022-07-05T02:30:18;97156.97;;;15.88;63.52
55263;BME280;41125;48.752;9.168;2022-07-05T02:30:49;97163.75;;;15.90;63.13
55263;BME280;41125;48.752;9.168;2022-07-05T02:31:20;97164.53;;;15.91;62.84
55263;BME280;41125;48.752;9.168;2022-07-05T02:31:52;97161.81;;;15.91;64.39
55263;BME280;41125;48.752;9.168;2022-07-05T02:32:23;97169.53;;;15.89;63.51
55263;BME280;41125;48.752;9.168;2022-07-05T02:32:53;97162.44;;;15.88;63.70
55263;BME280;41125;48.752;9.168;2022-07-05T02:33:24;97167.13;;;15.87;63.77
55263;BME280;41125;48.752;9.168;2022-07-05T02:33:55;97172.59;;;15.87;63.60
55263;BME280;41125;48.752;9.168;2022-07-05T02:34:26;97163.25;;;15.88;63.86
55263;BME280;41125;48.752;9.168;2022-07-05T02:34:57;97163.25;;;15.88;64.21
55263;BME280;41125;48.752;9.168;2022-07-05T02:35:28;97161.62;;;15.87;64.38
55263;BME280;41125;48.752;9.168;2022-07-05T02:36:05;97161.62;;;15.87;64.23
55263;BME280;41125;48.752;9.168;2022-07-05T02:36:37;97161.62;;;15.87;64.01
55263;BME280;41125;48.752;9.168;2022-07-05T02:37:08;97161.97;;;15.86;64.52
55263;BME280;41125;48.752;9.168;2022-07-05T02:37:39;97170.00;;;15.82;65.56
55263;BME280;41125;48.752;9.168;2022-07-05T02:38:10;97172.87;;;15.77;65.70
55263;BME280;41125;48.752;9.168;2022-07-05T02:38:41;97163.69;;;15.73;66.03
55263;BME280;41125;48.752;9.168;2022-07-05T02:39:12;97163.84;;;15.68;66.28
55263;BME280;41125;48.752;9.168;2022-07-05T02:39:42;97162.22;;;15.67;66.23
55263;BME280;41125;48.752;9.168;2022-07-05T02:40:13;97164.47;;;15.65;65.42
55263;BME280;41125;48.752;9.168;2022-07-05T02:40:44;97167.69;;;15.67;65.08
55263;BME280;41125;48.752;9.168;2022-07-05T02:41:15;97160.00;;;15.69;64.61
55263;BME280;41125;48.752;9.168;2022-07-05T02:41:46;97157.25;;;15.69;65.51
55263;BME280;41125;48.752;9.168;2022-07-05T02:42:17;97167.69;;;15.67;65.87
55263;BME280;41125;48.752;9.168;2022-07-05T02:42:48;97168.34;;;15.64;65.84
55263;BME280;41125;48.752;9.168;2022-07-05T02:43:20;97166.25;;;15.61;65.99
55263;BME280;41125;48.752;9.168;2022-07-05T02:43:51;97164.31;;;15.61;65.82
55263;BME280;41125;48.752;9.168;2022-07-05T02:44:23;97161.44;;;15.58;65.56
55263;BME280;41125;48.752;9.168;2022-07-05T02:44:54;97168.03;;;15.57;65.48
55263;BME280;41125;48.752;9.168;2022-07-05T02:45:25;97164.47;;;15.56;65.20
55263;BME280;41125;48.752;9.168;2022-07-05T02:45:55;97164.78;;;15.55;64.94
55263;BME280;41125;48.752;9.168;2022-07-05T02:46:26;97169.44;;;15.54;65.30
55263;BME280;41125;48.752;9.168;2022-07-05T02:46:57;97168.03;;;15.57;64.97
55263;BME280;41125;48.752;9.168;2022-07-05T02:47:31;97165.78;;;15.59;64.61
55263;BME280;41125;48.752;9.168;2022-07-05T02:48:02;97171.41;;;15.62;64.48
55263;BME280;41125;48.752;9.168;2022-07-05T02:48:35;97165.28;;;15.65;64.15
55263;BME280;41125;48.752;9.168;2022-07-05T02:49:06;97173.19;;;15.67;64.11
55263;BME280;41125;48.752;9.168;2022-07-05T02:49:37;97168.19;;;15.69;63.95